Terminal Aerodrome Forecast
Issued by NWS Tampa Bay Area, FL

Home | Current Version | Previous Version | Text Only | Print | Product List | Glossary On
Versions: 1 2 3 4 5 6 7 8 9 10 11 12
089
FTUS42 KTBW 290520
TAFFMY
TAF
KFMY 290520Z 2906/3006 VRB03KT P6SM FEW030 BKN090
     FM291800 28009KT P6SM VCTS FEW045CB SCT070
     FM300100 02005KT P6SM SCT050 BKN120=

USA.gov is the U.S. government's official web portal to all federal, state and local government web resources and services.